Stations météo

réclame
Mon MeteoGroup
Stansted, Grande-Bretagne (3683): Température de l'air & dewpoint: 08.08.2018 22:00:00 - 14.08.2018 22:00:00 (BST)Stansted, Grande-Bretagne (3683): Vitesse du vent: 08.08.2018 22:00:00 - 14.08.2018 22:00:00 (BST)Stansted, Grande-Bretagne (3683): Direction du vent: 08.08.2018 22:00:00 - 14.08.2018 22:00:00 (BST)Stansted, Grande-Bretagne (3683): visibility: 08.08.2018 22:00:00 - 14.08.2018 22:00:00 (BST)
Date & Time tt [°C] td [°C] ff [km/h] ff [knt] dd vv [km]
14.08.2018 22:00:00 20,0 15,0 15 8 W 10
14.08.2018 21:00:00 21,0 15,0 11 6 WSW 10
14.08.2018 20:00:00 22,0 14,0 9 5 W 10
14.08.2018 19:00:00 23,0 14,0 15 8 W 10
14.08.2018 18:00:00 23,0 14,0 11 6 W 10
14.08.2018 17:00:00 23,0 13,0 16 9 W 10
14.08.2018 16:00:00 23,0 13,0 11 6 W 10
14.08.2018 15:00:00 22,0 12,0 11 6 WNW 10
14.08.2018 14:00:00 21,0 12,0 15 8 W 10
14.08.2018 13:00:00 21,0 13,0 13 7 WNW 10
14.08.2018 12:00:00 19,0 13,0 15 8 W 10
14.08.2018 11:00:00 18,0 13,0 13 7 W 10
14.08.2018 10:00:00 18,0 13,0 13 7 W 10
14.08.2018 09:00:00 18,0 13,0 13 7 WNW 10
14.08.2018 08:00:00 16,0 12,0 11 6 WNW 10
14.08.2018 07:00:00 14,0 12,0 9 5 W 10
14.08.2018 06:00:00 13,0 11,0 9 5 W 10
14.08.2018 05:00:00 14,0 11,0 9 5 WNW 10
14.08.2018 04:00:00 14,0 12,0 8 4 WNW 10
14.08.2018 03:00:00 15,0 12,0 13 7 WNW 10
14.08.2018 02:00:00 16,0 12,0 15 8 WNW 10
14.08.2018 01:00:00 17,0 13,0 11 6 WNW 10
14.08.2018 00:00:00 17,0 13,0 13 7 NW 10
13.08.2018 23:00:00 17,0 14,0 13 7 WNW 10
13.08.2018 22:00:00 17,0 15,0 8 4 NW 10
13.08.2018 21:00:00 18,0 15,0 8 4 NNW 10
13.08.2018 20:00:00 21,0 15,0 13 7 NW 10
13.08.2018 19:00:00 21,0 16,0 2 1 W 10
13.08.2018 18:00:00 20,0 16,0 5 3 NNE 10
13.08.2018 17:00:00 21,0 16,0 5 3 - 10
13.08.2018 16:00:00 20,0 16,0 8 4 NW 10
13.08.2018 15:00:00 22,0 16,0 16 9 W 10
13.08.2018 14:00:00 19,0 17,0 9 5 WNW 10
13.08.2018 13:00:00 20,0 15,0 11 6 W 10
13.08.2018 12:00:00 19,0 15,0 11 6 W 10
13.08.2018 11:00:00 19,0 15,0 13 7 W 10
13.08.2018 10:00:00 18,0 15,0 11 6 W 10
13.08.2018 09:00:00 17,0 15,0 9 5 W 10
13.08.2018 08:00:00 16,0 15,0 8 4 W 8
13.08.2018 07:00:00 15,0 14,0 5 3 WSW 7
13.08.2018 06:00:00 15,0 14,0 4 2 W 10
13.08.2018 05:00:00 15,0 14,0 5 3 - 10
13.08.2018 04:00:00 15,0 15,0 8 4 W 9
13.08.2018 03:00:00 16,0 15,0 11 6 SW 8
13.08.2018 02:00:00 16,0 15,0 8 4 SSW 5
13.08.2018 01:00:00 16,0 15,0 13 7 S 7
13.08.2018 00:00:00 16,0 15,0 11 6 SSE 10
12.08.2018 23:00:00 16,0 14,0 9 5 SSE 10
12.08.2018 22:00:00 18,0 12,0 9 5 SSW 10
12.08.2018 21:00:00 18,0 12,0 13 7 S 10
12.08.2018 20:00:00 18,0 14,0 8 4 SW 10
12.08.2018 19:00:00 20,0 13,0 9 5 SSW 10
12.08.2018 18:00:00 20,0 13,0 16 9 SSW 10
12.08.2018 17:00:00 20,0 13,0 21 11 SSW 10
12.08.2018 16:00:00 20,0 13,0 18 10 SSW 10
12.08.2018 15:00:00 20,0 14,0 21 11 SW 10
12.08.2018 14:00:00 22,0 13,0 31 17 SSW 10
12.08.2018 13:00:00 22,0 13,0 28 15 SSW 10
12.08.2018 12:00:00 22,0 11,0 29 16 S 10
12.08.2018 11:00:00 21,0 15,0 18 10 S 10
12.08.2018 10:00:00 19,0 14,0 22 12 SSW 10
12.08.2018 09:00:00 19,0 15,0 18 10 SSW 10
12.08.2018 08:00:00 18,0 16,0 16 9 S 10
12.08.2018 07:00:00 17,0 15,0 18 10 S 10
12.08.2018 06:00:00 16,0 14,0 13 7 SSE 10
12.08.2018 05:00:00 15,0 14,0 15 8 SSE 10
12.08.2018 04:00:00 16,0 15,0 15 8 S 10
12.08.2018 03:00:00 16,0 15,0 15 8 S 10
12.08.2018 02:00:00 16,0 15,0 16 9 S 10
12.08.2018 01:00:00 16,0 15,0 18 10 S 10
12.08.2018 00:00:00 16,0 15,0 16 9 SSE 10
11.08.2018 23:00:00 16,0 15,0 15 8 SSE 9
11.08.2018 22:00:00 16,0 15,0 15 8 S 7
11.08.2018 21:00:00 16,0 15,0 16 9 SSW 10
11.08.2018 20:00:00 18,0 14,0 18 10 SSW 10
11.08.2018 19:00:00 19,0 13,0 21 11 SSW 10
11.08.2018 18:00:00 20,0 11,0 18 10 SW 10
11.08.2018 17:00:00 20,0 9,0 21 11 SSW 10
11.08.2018 16:00:00 21,0 8,0 21 11 SW 10
11.08.2018 15:00:00 22,0 7,0 16 9 SW 10
11.08.2018 14:00:00 21,0 7,0 16 9 SW 10
11.08.2018 13:00:00 20,0 8,0 13 7 SW 10
11.08.2018 12:00:00 19,0 8,0 13 7 SSW 10
11.08.2018 11:00:00 18,0 8,0 9 5 WSW 10
11.08.2018 10:00:00 16,0 9,0 11 6 SW 10
11.08.2018 09:00:00 14,0 10,0 8 4 WSW 10
11.08.2018 08:00:00 12,0 9,0 8 4 SW 10
11.08.2018 07:00:00 9,0 8,0 5 3 W 10
11.08.2018 06:00:00 8,0 7,0 4 2 W 10
11.08.2018 05:00:00 9,0 7,0 5 3 W 10
11.08.2018 04:00:00 8,0 7,0 8 4 WSW 10
11.08.2018 03:00:00 8,0 7,0 5 3 WSW 10
11.08.2018 02:00:00 9,0 7,0 5 3 WSW 10
11.08.2018 01:00:00 10,0 8,0 5 3 WSW 10
11.08.2018 00:00:00 11,0 8,0 8 4 WSW 10
10.08.2018 23:00:00 11,0 9,0 8 4 W 10
10.08.2018 22:00:00 12,0 9,0 9 5 W 10
10.08.2018 21:00:00 12,0 10,0 8 4 W 10
10.08.2018 20:00:00 14,0 10,0 11 6 WNW 10
10.08.2018 19:00:00 15,0 10,0 11 6 NW 10
10.08.2018 18:00:00 17,0 11,0 13 7 W 10
10.08.2018 17:00:00 17,0 12,0 13 7 W 10
10.08.2018 16:00:00 15,0 12,0 13 7 N 10
10.08.2018 15:00:00 15,0 13,0 8 4 W 10
10.08.2018 14:00:00 12,0 12,0 13 7 N 5
10.08.2018 13:00:00 15,0 11,0 16 9 WSW 10
10.08.2018 12:00:00 16,0 10,0 18 10 WSW 10
10.08.2018 11:00:00 17,0 10,0 24 13 SW 10
10.08.2018 10:00:00 17,0 11,0 22 12 SW 10
10.08.2018 09:00:00 14,0 11,0 18 10 SW 10
10.08.2018 08:00:00 13,0 11,0 21 11 SW 10
10.08.2018 07:00:00 11,0 10,0 15 8 SSW 10
10.08.2018 06:00:00 10,0 9,0 13 7 SSW 10
10.08.2018 05:00:00 10,0 9,0 11 6 SSW 10
10.08.2018 04:00:00 10,0 9,0 11 6 SW 6
10.08.2018 03:00:00 11,0 10,0 13 7 SW 7
10.08.2018 02:00:00 11,0 10,0 13 7 SW 9
10.08.2018 01:00:00 12,0 11,0 11 6 SSW 3,9
10.08.2018 00:00:00 12,0 11,0 9 5 SSW 4,1
09.08.2018 23:00:00 13,0 12,0 5 3 WSW 5
09.08.2018 22:00:00 14,0 13,0 13 7 WSW 6
09.08.2018 21:00:00 13,0 12,0 8 4 S 10
09.08.2018 20:00:00 13,0 12,0 8 4 S 10
09.08.2018 19:00:00 13,0 12,0 8 4 W 10
09.08.2018 18:00:00 13,0 12,0 11 6 NNE 10
09.08.2018 17:00:00 14,0 13,0 15 8 NNW 8
09.08.2018 16:00:00 14,0 13,0 13 7 NW 10
09.08.2018 15:00:00 15,0 14,0 11 6 WNW 10
09.08.2018 14:00:00 15,0 14,0 8 4 NW 8
09.08.2018 13:00:00 15,0 14,0 8 4 NW 9
09.08.2018 12:00:00 16,0 14,0 4 2 - 10
09.08.2018 11:00:00 16,0 14,0 8 4 N 10
09.08.2018 10:00:00 16,0 13,0 5 3 NNW 10
09.08.2018 09:00:00 16,0 13,0 4 2 NW 10
09.08.2018 08:00:00 16,0 13,0 2 1 W 10
09.08.2018 07:00:00 15,0 12,0 2 1 W 10
09.08.2018 06:00:00 15,0 12,0 2 1 - 10
09.08.2018 05:00:00 15,0 12,0 8 4 WSW 10
09.08.2018 04:00:00 16,0 12,0 8 4 W 10
09.08.2018 03:00:00 16,0 11,0 9 5 WSW 10
09.08.2018 02:00:00 16,0 11,0 9 5 SW 10
09.08.2018 01:00:00 17,0 12,0 5 3 W 10
09.08.2018 00:00:00 17,0 11,0 5 3 WSW 10
08.08.2018 23:00:00 17,0 11,0 8 4 W 10
08.08.2018 22:00:00 17,0 10,0 8 4 WSW 10

tt = Température de l'air
td = dewpoint
ff = Vitesse du vent
dd = Direction du vent
vv = visibility

stations d'obs. à proximité